首页
METAR-TAF:

METAR-TAF

机场 :

Aupaluk, 魁北克, 加拿大

纬度: 59-17-48N, 经度: 069-35-59W, 海拔: 35米

当前天气观测

该预报发布于13小时和32分钟前的22:00 UTC
风速4节,风向南转西南
温度 -6°C
湿度 86%
气压 990 hPa
能見度: 24.1公里
少量云层高于3500英尺
散云层高于8600英尺
多云层高于23000英尺

METAR: CYLA 172200Z 20004KT 15SM FEW035 SCT086 BKN230 M06/M08 A2923 RMK SC2AC2CI2 SN CVR/MUCH LOOSE LAST STFD OBS/NEXT 181300UTC SLP902

时间: 06:32 (11:32 UTC)


TAF: 丢失

超过4000个机场的气象观测和天气预报(METAR&TAF报告)。

可查询的气象台以黄色和红色小点在地图上表示。

将鼠标移到小点上方,可查看气象台名称。

然后点击查看天气观测和预报。

如需切换地图:点击带黑十字的绿色按钮放大地图;点击带横线的绿色按钮缩小地图;或者点击绿色箭头查看邻近地区的地图。


METAR-TAF: